createdAt,value
2023-05-09T00:00:11.060Z,16.69
2023-05-09T00:02:40.191Z,16.69
2023-05-09T00:05:08.517Z,16.63
2023-05-09T00:07:36.234Z,16.63
2023-05-09T00:10:04.564Z,16.46
2023-05-09T00:12:36.982Z,16.32
2023-05-09T00:15:08.466Z,16.37
2023-05-09T00:17:39.828Z,16.12
2023-05-09T00:20:12.282Z,16.20
2023-05-09T00:22:41.359Z,16.19
2023-05-09T00:25:10.434Z,16.23
2023-05-09T00:27:38.319Z,16.16
2023-05-09T00:30:07.282Z,16.01
2023-05-09T00:32:34.846Z,15.97
2023-05-09T00:35:02.296Z,15.88
2023-05-09T00:37:31.256Z,15.82
2023-05-09T00:39:58.454Z,15.81
2023-05-09T00:42:25.813Z,15.76
2023-05-09T00:44:52.994Z,15.65
2023-05-09T00:47:24.055Z,15.64
2023-05-09T00:50:17.045Z,15.32
2023-05-09T00:52:44.319Z,15.43
2023-05-09T00:55:12.142Z,15.38
2023-05-09T00:57:39.616Z,15.36
2023-05-09T01:00:13.231Z,15.32
2023-05-09T01:02:46.816Z,15.39
2023-05-09T01:05:15.504Z,15.34
2023-05-09T01:08:36.391Z,15.37
2023-05-09T01:11:31.185Z,15.38
2023-05-09T01:14:39.063Z,15.46
2023-05-09T01:18:01.203Z,15.41
2023-05-09T01:20:46.881Z,15.34
2023-05-09T01:23:59.648Z,15.39
2023-05-09T01:26:43.506Z,15.46
2023-05-09T01:29:42.670Z,15.43
2023-05-09T01:32:20.276Z,15.40
2023-05-09T01:34:53.375Z,15.41
2023-05-09T01:37:30.633Z,15.25
2023-05-09T01:40:09.578Z,15.01
2023-05-09T01:42:56.834Z,15.21
2023-05-09T01:45:27.791Z,15.26
2023-05-09T01:48:00.284Z,15.29
2023-05-09T01:50:31.169Z,15.32
2023-05-09T01:53:02.181Z,15.27
2023-05-09T01:55:36.071Z,15.20
2023-05-09T01:58:11.773Z,15.11
2023-05-09T02:00:40.726Z,14.91
2023-05-09T02:03:09.885Z,14.77
2023-05-09T02:05:37.904Z,14.75
2023-05-09T02:08:06.727Z,14.79
2023-05-09T02:10:35.991Z,14.91
2023-05-09T02:13:05.806Z,14.73
2023-05-09T02:15:34.211Z,14.74
2023-05-09T02:18:01.973Z,14.67
2023-05-09T02:20:29.357Z,14.75
2023-05-09T02:22:56.792Z,14.83
2023-05-09T02:25:25.867Z,14.81
2023-05-09T02:27:57.045Z,14.82
2023-05-09T02:30:27.084Z,14.92
2023-05-09T02:33:02.369Z,14.97
2023-05-09T02:35:30.095Z,15.03
2023-05-09T02:37:59.769Z,15.02
2023-05-09T02:40:31.080Z,15.11
2023-05-09T02:42:58.261Z,15.13
2023-05-09T02:45:26.089Z,15.14
2023-05-09T02:47:53.506Z,15.02
2023-05-09T02:50:21.182Z,14.88
2023-05-09T02:52:48.617Z,14.75
2023-05-09T02:55:16.234Z,14.47
2023-05-09T02:57:44.152Z,14.28
2023-05-09T03:00:12.395Z,14.21
2023-05-09T03:02:39.926Z,14.43
2023-05-09T03:05:13.539Z,14.62
2023-05-09T03:07:41.942Z,14.44
2023-05-09T03:10:12.305Z,14.31
2023-05-09T03:12:40.400Z,14.49
2023-05-09T03:15:08.970Z,14.67
2023-05-09T03:17:37.934Z,14.72
2023-05-09T03:20:07.891Z,14.77
2023-05-09T03:22:35.179Z,14.81
2023-05-09T03:25:06.677Z,14.87
2023-05-09T03:27:34.262Z,14.94
2023-05-09T03:30:02.119Z,14.97
2023-05-09T03:32:29.988Z,14.94
2023-05-09T03:34:57.597Z,14.83
2023-05-09T03:37:27.217Z,14.90
2023-05-09T03:39:55.148Z,14.76
2023-05-09T03:42:23.389Z,14.84
2023-05-09T03:44:53.138Z,14.96
2023-05-09T03:47:21.983Z,15.01
2023-05-09T03:49:50.805Z,15.01
2023-05-09T03:52:21.815Z,15.03
2023-05-09T03:54:49.681Z,15.13
2023-05-09T03:57:17.232Z,15.05
2023-05-09T03:59:46.040Z,14.55
2023-05-09T04:02:14.501Z,14.13
2023-05-09T04:04:41.970Z,14.38
2023-05-09T04:07:09.944Z,14.31
2023-05-09T04:09:37.197Z,14.52
2023-05-09T04:12:04.765Z,14.60
2023-05-09T04:14:32.821Z,14.60
2023-05-09T04:17:00.069Z,14.76
2023-05-09T04:19:27.405Z,14.94
2023-05-09T04:21:55.834Z,15.09
2023-05-09T04:24:23.341Z,15.09
2023-05-09T04:26:50.974Z,14.94
2023-05-09T04:29:21.689Z,15.10
2023-05-09T04:31:53.532Z,15.24
2023-05-09T04:34:26.249Z,15.21
2023-05-09T04:36:54.641Z,15.28
2023-05-09T04:39:21.982Z,15.32
2023-05-09T04:41:58.032Z,15.02
2023-05-09T04:44:27.860Z,14.86
2023-05-09T04:46:55.649Z,14.75
2023-05-09T04:49:22.881Z,14.64
2023-05-09T04:51:51.723Z,14.59
2023-05-09T04:54:18.824Z,14.67
2023-05-09T04:56:47.395Z,15.07
2023-05-09T04:59:15.830Z,15.23
2023-05-09T05:01:43.926Z,15.24
2023-05-09T05:04:11.289Z,15.26
2023-05-09T05:06:38.424Z,15.41
2023-05-09T05:09:05.796Z,15.33
2023-05-09T05:11:33.737Z,15.61
2023-05-09T05:14:02.670Z,15.80
2023-05-09T05:16:29.873Z,15.78
2023-05-09T05:18:57.436Z,15.78
2023-05-09T05:21:25.086Z,15.91
2023-05-09T05:23:52.792Z,15.81
2023-05-09T05:26:21.029Z,16.02
2023-05-09T05:28:48.808Z,16.05
2023-05-09T05:31:15.998Z,15.94
2023-05-09T05:33:43.185Z,15.98
2023-05-09T05:36:10.636Z,16.21
2023-05-09T05:38:38.010Z,16.12
2023-05-09T05:41:05.639Z,15.82
2023-05-09T05:43:34.020Z,16.06
2023-05-09T05:46:01.692Z,16.17
2023-05-09T05:48:30.781Z,16.48
2023-05-09T05:50:58.895Z,16.60
2023-05-09T05:53:30.879Z,16.71
2023-05-09T05:55:59.907Z,16.84
2023-05-09T05:58:28.013Z,16.96
2023-05-09T06:00:55.383Z,17.17
2023-05-09T06:03:22.706Z,16.83
2023-05-09T06:05:58.156Z,17.04
2023-05-09T06:08:26.749Z,17.02
2023-05-09T06:10:54.042Z,16.82
2023-05-09T06:13:21.621Z,16.90
2023-05-09T06:16:02.020Z,17.02
2023-05-09T06:18:37.705Z,17.12
2023-05-09T06:21:04.983Z,17.36
2023-05-09T06:23:32.387Z,17.52
2023-05-09T06:25:59.597Z,17.60
2023-05-09T06:28:28.225Z,17.59
2023-05-09T06:30:55.533Z,17.78
2023-05-09T06:33:25.613Z,17.96
2023-05-09T06:35:52.814Z,17.27
2023-05-09T06:38:19.991Z,17.81
2023-05-09T06:40:47.132Z,17.79
2023-05-09T06:43:14.278Z,17.86
2023-05-09T06:45:41.425Z,18.21
2023-05-09T06:48:08.633Z,17.77
2023-05-09T06:50:35.929Z,17.99
2023-05-09T06:53:03.422Z,17.69
2023-05-09T06:55:30.597Z,18.02
2023-05-09T06:57:59.272Z,17.48
2023-05-09T07:00:27.062Z,17.61
2023-05-09T07:02:54.941Z,18.01
2023-05-09T07:05:22.962Z,17.80
2023-05-09T07:07:51.707Z,17.46
2023-05-09T07:10:19.819Z,18.03
2023-05-09T07:12:47.768Z,18.91
2023-05-09T07:15:22.707Z,19.64
2023-05-09T07:18:01.999Z,19.75
2023-05-09T07:20:29.404Z,20.27
2023-05-09T07:22:58.425Z,20.31
2023-05-09T07:25:26.214Z,19.83
2023-05-09T07:27:53.832Z,19.69
2023-05-09T07:30:21.147Z,19.66
2023-05-09T07:32:48.719Z,19.72
2023-05-09T07:35:16.228Z,20.12
2023-05-09T07:37:43.502Z,20.56
2023-05-09T07:40:11.437Z,20.28
2023-05-09T07:42:38.771Z,20.12
2023-05-09T07:45:07.227Z,20.58
2023-05-09T07:47:34.507Z,20.52
2023-05-09T07:50:01.730Z,19.90
2023-05-09T07:52:29.285Z,20.08
2023-05-09T07:54:56.968Z,20.47
2023-05-09T07:57:24.240Z,20.46
2023-05-09T07:59:52.127Z,20.92
2023-05-09T08:02:19.978Z,20.95
2023-05-09T08:04:49.104Z,21.43
2023-05-09T08:07:16.794Z,21.87
2023-05-09T08:09:44.160Z,22.03
2023-05-09T08:12:11.819Z,21.62
2023-05-09T08:14:39.478Z,21.96
2023-05-09T08:17:07.283Z,21.91
2023-05-09T08:19:34.885Z,22.23
2023-05-09T08:22:03.094Z,22.24
2023-05-09T08:24:31.975Z,22.38
2023-05-09T08:26:59.928Z,22.52
2023-05-09T08:29:27.206Z,22.57
2023-05-09T08:31:54.581Z,22.37
2023-05-09T08:34:21.721Z,21.76
2023-05-09T08:36:48.999Z,22.07
2023-05-09T08:39:16.262Z,22.20
2023-05-09T08:41:44.334Z,22.44
2023-05-09T08:44:12.604Z,22.42
2023-05-09T08:46:45.299Z,22.58
2023-05-09T08:49:13.190Z,22.62
2023-05-09T08:51:41.283Z,22.29
2023-05-09T08:54:11.250Z,22.91
2023-05-09T08:56:39.143Z,22.71
2023-05-09T08:59:07.044Z,23.08
2023-05-09T09:01:37.874Z,23.08
2023-05-09T09:04:08.453Z,22.45
2023-05-09T09:06:37.071Z,22.98
2023-05-09T09:09:11.439Z,21.52
2023-05-09T09:11:42.426Z,22.66
2023-05-09T09:14:24.093Z,22.37
2023-05-09T09:16:54.892Z,23.08
2023-05-09T09:19:30.690Z,22.99
2023-05-09T09:22:04.783Z,23.31
2023-05-09T09:24:32.286Z,23.60
2023-05-09T09:27:08.370Z,24.04
2023-05-09T09:29:35.675Z,24.46
2023-05-09T09:32:06.578Z,24.98
2023-05-09T09:34:33.950Z,25.06
2023-05-09T09:37:01.175Z,25.33
2023-05-09T09:39:28.301Z,24.57
2023-05-09T09:41:55.798Z,25.02
2023-05-09T09:44:24.006Z,25.44
2023-05-09T09:46:56.223Z,25.50
2023-05-09T09:49:27.020Z,24.57
2023-05-09T09:52:02.101Z,24.23
2023-05-09T09:54:29.617Z,25.33
2023-05-09T09:56:57.502Z,25.95
2023-05-09T09:59:27.503Z,26.27
2023-05-09T10:02:09.309Z,26.52
2023-05-09T10:04:41.511Z,25.21
2023-05-09T10:07:13.720Z,25.53
2023-05-09T10:09:43.872Z,25.79
2023-05-09T10:12:12.214Z,26.27
2023-05-09T10:14:42.958Z,26.02
2023-05-09T10:17:15.103Z,26.21
2023-05-09T10:19:47.780Z,26.29
2023-05-09T10:22:19.304Z,26.90
2023-05-09T10:25:13.038Z,27.13
2023-05-09T10:27:46.771Z,26.83
2023-05-09T10:30:20.680Z,25.88
2023-05-09T10:33:03.445Z,25.72
2023-05-09T10:35:56.195Z,24.92
2023-05-09T10:38:24.866Z,24.84
2023-05-09T10:40:54.312Z,24.21
2023-05-09T10:43:24.993Z,24.85
2023-05-09T10:45:53.773Z,25.31
2023-05-09T10:48:22.593Z,25.57
2023-05-09T10:50:50.168Z,26.40
2023-05-09T10:53:18.253Z,26.01
2023-05-09T10:55:55.296Z,25.83
2023-05-09T10:58:34.202Z,24.54
2023-05-09T11:01:03.907Z,25.17
2023-05-09T11:03:59.967Z,26.27
2023-05-09T11:06:43.529Z,25.94
2023-05-09T11:09:32.856Z,25.96
2023-05-09T11:12:21.292Z,26.78
2023-05-09T11:14:54.712Z,27.45
2023-05-09T11:17:21.957Z,26.09
2023-05-09T11:19:49.882Z,26.21
2023-05-09T11:22:42.938Z,26.81
2023-05-09T11:25:14.944Z,27.39
2023-05-09T11:27:49.497Z,27.44
2023-05-09T11:30:20.153Z,26.28
2023-05-09T11:32:59.004Z,26.84
2023-05-09T11:35:27.282Z,27.00
2023-05-09T11:38:06.877Z,27.73
2023-05-09T11:40:35.729Z,27.90
2023-05-09T11:43:02.920Z,28.18
2023-05-09T11:45:33.940Z,27.97
2023-05-09T11:48:02.081Z,27.28
2023-05-09T11:50:30.003Z,27.70
2023-05-09T11:52:57.385Z,28.12
2023-05-09T11:55:32.560Z,28.75
2023-05-09T11:57:59.902Z,29.32
2023-05-09T12:00:27.204Z,30.08
2023-05-09T12:02:54.873Z,29.54
2023-05-09T12:05:23.405Z,29.69
2023-05-09T12:07:52.256Z,30.72
2023-05-09T12:10:23.490Z,29.59
2023-05-09T12:12:57.269Z,29.10
2023-05-09T12:15:25.313Z,29.53
2023-05-09T12:18:08.108Z,29.86
2023-05-09T12:20:50.288Z,27.54
2023-05-09T12:23:23.767Z,27.90
2023-05-09T12:25:57.211Z,29.18
2023-05-09T12:28:26.400Z,29.12
2023-05-09T12:30:54.968Z,27.92
2023-05-09T12:33:22.675Z,29.13
2023-05-09T12:36:19.548Z,30.56
2023-05-09T12:38:55.271Z,31.99
2023-05-09T12:41:36.868Z,32.85
2023-05-09T12:44:09.852Z,33.92
2023-05-09T12:46:37.682Z,34.40
2023-05-09T12:49:05.428Z,33.74
2023-05-09T12:51:32.636Z,33.38
2023-05-09T12:54:04.983Z,33.93
2023-05-09T12:56:35.725Z,34.53
2023-05-09T12:59:03.577Z,34.53
2023-05-09T13:01:32.022Z,33.65
2023-05-09T13:04:06.370Z,34.02
2023-05-09T13:06:35.700Z,33.13
2023-05-09T13:09:06.233Z,32.16
2023-05-09T13:11:35.363Z,32.34
2023-05-09T13:14:04.139Z,31.99
2023-05-09T13:16:31.661Z,32.35
2023-05-09T13:18:58.860Z,31.98
2023-05-09T13:21:26.227Z,31.50
2023-05-09T13:23:54.557Z,32.56
2023-05-09T13:26:23.100Z,31.52
2023-05-09T13:28:50.384Z,32.06
2023-05-09T13:31:19.016Z,31.92
2023-05-09T13:33:48.636Z,30.36
2023-05-09T13:36:17.236Z,31.03
2023-05-09T13:38:45.584Z,31.42
2023-05-09T13:41:20.182Z,31.73
2023-05-09T13:43:48.111Z,31.14
2023-05-09T13:46:15.953Z,31.14
2023-05-09T13:48:44.480Z,31.01
2023-05-09T13:51:12.387Z,31.29
2023-05-09T13:53:39.705Z,29.73
2023-05-09T13:56:09.482Z,30.03
2023-05-09T13:58:36.898Z,28.97
2023-05-09T14:01:07.811Z,28.51
2023-05-09T14:03:42.990Z,29.38
2023-05-09T14:06:15.315Z,28.98
2023-05-09T14:08:42.609Z,28.91
2023-05-09T14:11:15.375Z,27.71
2023-05-09T14:13:42.704Z,27.07
2023-05-09T14:16:10.232Z,25.63
2023-05-09T14:18:37.471Z,26.11
2023-05-09T14:21:04.972Z,26.30
2023-05-09T14:23:32.489Z,26.46
2023-05-09T14:25:59.674Z,26.43
2023-05-09T14:28:27.243Z,26.13
2023-05-09T14:30:54.443Z,25.55
2023-05-09T14:33:21.666Z,22.62
2023-05-09T14:36:14.544Z,18.13
2023-05-09T14:44:41.794Z,17.50
2023-05-09T14:47:21.758Z,18.03
2023-05-09T14:49:53.011Z,18.29
2023-05-09T14:52:20.633Z,18.69
2023-05-09T14:54:47.892Z,19.07
2023-05-09T14:57:17.766Z,19.41
2023-05-09T14:59:45.922Z,19.50
2023-05-09T15:02:26.141Z,19.87
2023-05-09T15:04:56.048Z,19.87
2023-05-09T15:07:23.866Z,19.92
2023-05-09T15:09:51.341Z,20.06
2023-05-09T15:12:18.448Z,19.87
2023-05-09T15:14:45.611Z,19.86
2023-05-09T15:17:13.004Z,19.65
2023-05-09T15:19:41.701Z,20.21
2023-05-09T15:22:09.404Z,20.47
2023-05-09T15:24:37.524Z,19.98
2023-05-09T15:27:05.089Z,20.10
2023-05-09T15:29:32.828Z,19.98
2023-05-09T15:32:00.765Z,20.53
2023-05-09T15:34:27.960Z,21.05
2023-05-09T15:36:55.119Z,21.44
2023-05-09T15:39:22.384Z,21.39
2023-05-09T15:41:49.482Z,21.73
2023-05-09T15:44:16.792Z,21.68
2023-05-09T15:46:44.279Z,21.83
2023-05-09T15:49:11.395Z,21.87
2023-05-09T15:51:38.594Z,21.40
2023-05-09T15:54:05.834Z,21.02
2023-05-09T15:56:32.965Z,20.66
2023-05-09T15:59:00.498Z,20.89
2023-05-09T16:01:35.127Z,20.83
2023-05-09T16:04:02.977Z,20.68
2023-05-09T16:06:30.851Z,20.79
2023-05-09T16:08:58.275Z,20.87
2023-05-09T16:11:25.518Z,20.92
2023-05-09T16:13:52.835Z,21.13
2023-05-09T16:16:20.200Z,21.23
2023-05-09T16:18:47.445Z,21.26
2023-05-09T16:21:14.686Z,21.12
2023-05-09T16:23:42.817Z,20.81
2023-05-09T16:26:10.712Z,20.71
2023-05-09T16:28:40.092Z,20.67
2023-05-09T16:31:08.552Z,20.76
2023-05-09T16:33:35.731Z,21.01
2023-05-09T16:36:02.938Z,21.22
2023-05-09T16:38:30.365Z,21.22
2023-05-09T16:40:57.585Z,21.28
2023-05-09T16:43:24.795Z,21.38
2023-05-09T16:45:52.895Z,21.45
2023-05-09T16:48:20.263Z,21.38
2023-05-09T16:50:48.368Z,21.07
2023-05-09T16:53:17.388Z,20.56
2023-05-09T16:55:44.560Z,20.08
2023-05-09T16:58:11.740Z,19.67
2023-05-09T17:00:38.960Z,19.25
2023-05-09T17:03:07.213Z,19.35
2023-05-09T17:05:34.993Z,19.20
2023-05-09T17:08:02.632Z,18.96
2023-05-09T17:10:30.592Z,18.75
2023-05-09T17:12:58.247Z,18.58
2023-05-09T17:15:26.183Z,17.96
2023-05-09T17:17:53.616Z,17.67
2023-05-09T17:20:20.837Z,17.99
2023-05-09T17:22:48.152Z,18.26
2023-05-09T17:25:16.683Z,18.49
2023-05-09T17:27:43.885Z,18.24
2023-05-09T17:30:11.705Z,17.77
2023-05-09T17:32:38.960Z,17.32
2023-05-09T17:35:06.948Z,17.70
2023-05-09T17:37:34.228Z,17.84
2023-05-09T17:40:02.156Z,17.86
2023-05-09T17:42:29.426Z,18.04
2023-05-09T17:44:56.750Z,18.18
2023-05-09T17:47:24.129Z,18.31
2023-05-09T17:49:52.094Z,18.37
2023-05-09T17:52:19.270Z,18.42
2023-05-09T17:54:47.258Z,18.39
2023-05-09T17:57:14.823Z,17.94
2023-05-09T17:59:42.337Z,17.36
2023-05-09T18:02:11.118Z,16.78
2023-05-09T18:04:39.090Z,16.17
2023-05-09T18:07:08.736Z,16.53
2023-05-09T18:09:36.076Z,16.27
2023-05-09T18:12:03.495Z,16.21
2023-05-09T18:14:30.667Z,16.51
2023-05-09T18:16:58.063Z,16.88
2023-05-09T18:19:25.534Z,18.10
2023-05-09T18:21:53.562Z,17.64
2023-05-09T18:24:21.719Z,17.34
2023-05-09T18:26:49.369Z,17.34
2023-05-09T18:29:20.380Z,17.29
2023-05-09T18:31:48.004Z,17.34
2023-05-09T18:34:15.193Z,17.44
2023-05-09T18:36:42.431Z,17.51
2023-05-09T18:39:11.734Z,17.24
2023-05-09T18:41:38.912Z,17.09
2023-05-09T18:44:06.104Z,16.46
2023-05-09T18:46:33.802Z,16.40
2023-05-09T18:49:02.910Z,16.68
2023-05-09T18:51:31.608Z,16.78
2023-05-09T18:53:58.695Z,16.94
2023-05-09T18:56:25.807Z,17.04
2023-05-09T18:58:53.002Z,17.15
2023-05-09T19:01:20.630Z,17.24
2023-05-09T19:03:54.018Z,17.29
2023-05-09T19:06:21.998Z,17.26
2023-05-09T19:08:49.273Z,17.31
2023-05-09T19:11:16.413Z,17.28
2023-05-09T19:13:48.616Z,17.07
2023-05-09T19:16:18.685Z,16.90
2023-05-09T19:18:47.262Z,16.83
2023-05-09T19:21:15.715Z,17.08
2023-05-09T19:23:47.708Z,17.21
2023-05-09T19:26:19.621Z,17.30
2023-05-09T19:28:47.247Z,17.30
2023-05-09T19:31:16.070Z,17.21
2023-05-09T19:33:46.525Z,17.09
2023-05-09T19:36:14.356Z,16.96
2023-05-09T19:38:41.600Z,17.05
2023-05-09T19:41:08.882Z,17.16
2023-05-09T19:43:36.208Z,17.15
2023-05-09T19:46:03.665Z,17.12
2023-05-09T19:48:30.888Z,17.19
2023-05-09T19:50:59.222Z,17.24
2023-05-09T19:53:26.679Z,17.19
2023-05-09T19:55:54.076Z,17.19
2023-05-09T19:58:21.354Z,17.31
2023-05-09T20:00:48.765Z,17.18
2023-05-09T20:03:16.024Z,17.07
2023-05-09T20:05:43.293Z,17.11
2023-05-09T20:08:10.610Z,17.05
2023-05-09T20:10:38.306Z,17.10
2023-05-09T20:13:06.615Z,17.05
2023-05-09T20:15:33.898Z,17.01
2023-05-09T20:18:03.535Z,16.73
2023-05-09T20:20:32.230Z,16.47
2023-05-09T20:22:59.586Z,16.38
2023-05-09T20:25:27.613Z,16.51
2023-05-09T20:27:55.356Z,16.59
2023-05-09T20:30:22.579Z,16.71
2023-05-09T20:32:50.172Z,16.50
2023-05-09T20:35:17.405Z,16.37
2023-05-09T20:37:44.700Z,16.41
2023-05-09T20:40:17.334Z,16.53
2023-05-09T20:43:11.118Z,16.63
2023-05-09T20:45:53.817Z,16.64
2023-05-09T20:48:23.658Z,16.57
2023-05-09T20:50:51.411Z,16.66
2023-05-09T20:53:19.105Z,16.67
2023-05-09T20:55:47.797Z,16.67
2023-05-09T20:58:16.384Z,16.63
2023-05-09T21:00:47.150Z,16.53
2023-05-09T21:03:14.883Z,16.63
2023-05-09T21:05:42.150Z,16.14
2023-05-09T21:08:09.451Z,16.33
2023-05-09T21:10:37.010Z,16.48
2023-05-09T21:13:04.700Z,16.56
2023-05-09T21:15:32.020Z,16.62
2023-05-09T21:17:59.312Z,16.67
2023-05-09T21:20:26.693Z,16.45
2023-05-09T21:22:54.360Z,16.59
2023-05-09T21:25:26.036Z,16.65
2023-05-09T21:27:53.519Z,16.69
2023-05-09T21:30:20.842Z,16.71
2023-05-09T21:32:51.399Z,16.57
2023-05-09T21:35:18.814Z,16.58
2023-05-09T21:37:46.662Z,16.63
2023-05-09T21:40:14.190Z,16.70
2023-05-09T21:42:43.752Z,16.50
2023-05-09T21:45:11.528Z,16.58
2023-05-09T21:47:41.801Z,16.62
2023-05-09T21:50:10.281Z,16.67
2023-05-09T21:52:37.458Z,16.65
2023-05-09T21:55:05.246Z,16.68
2023-05-09T21:57:32.473Z,16.56
2023-05-09T22:00:01.615Z,16.61
2023-05-09T22:02:34.238Z,16.64
2023-05-09T22:05:01.678Z,16.61
2023-05-09T22:07:28.870Z,16.65
2023-05-09T22:09:55.955Z,16.63
2023-05-09T22:12:23.168Z,16.56
2023-05-09T22:14:56.340Z,16.54
2023-05-09T22:17:24.628Z,16.51
2023-05-09T22:19:52.851Z,16.56
2023-05-09T22:22:21.364Z,16.54
2023-05-09T22:24:49.693Z,16.53
2023-05-09T22:27:16.980Z,16.47
2023-05-09T22:29:45.807Z,16.45
2023-05-09T22:32:15.050Z,16.41
2023-05-09T22:34:42.227Z,16.41
2023-05-09T22:37:09.909Z,16.43
2023-05-09T22:39:37.113Z,16.46
2023-05-09T22:42:04.470Z,16.44
2023-05-09T22:44:32.493Z,16.39
2023-05-09T22:46:59.612Z,16.27
2023-05-09T22:49:26.830Z,16.36
2023-05-09T22:51:53.950Z,16.26
2023-05-09T22:54:22.731Z,16.28
2023-05-09T22:56:49.971Z,16.21
2023-05-09T22:59:17.266Z,16.23
2023-05-09T23:01:44.921Z,16.31
2023-05-09T23:04:12.508Z,16.31
2023-05-09T23:06:39.705Z,16.33
2023-05-09T23:09:06.923Z,16.16
2023-05-09T23:11:34.011Z,16.06
2023-05-09T23:14:01.551Z,16.04
2023-05-09T23:16:28.962Z,16.10
2023-05-09T23:18:56.546Z,16.14
2023-05-09T23:21:24.031Z,16.16
2023-05-09T23:23:52.161Z,15.71
2023-05-09T23:26:20.974Z,15.84
2023-05-09T23:28:48.583Z,15.90
2023-05-09T23:31:15.732Z,16.02
2023-05-09T23:33:43.943Z,15.95
2023-05-09T23:36:11.128Z,15.62
2023-05-09T23:38:38.674Z,15.70
2023-05-09T23:41:06.183Z,15.68
2023-05-09T23:43:34.465Z,15.66
2023-05-09T23:46:01.875Z,15.53
2023-05-09T23:48:29.088Z,15.49
2023-05-09T23:50:56.972Z,15.61
2023-05-09T23:53:24.819Z,15.59
2023-05-09T23:55:52.015Z,15.53
2023-05-09T23:58:19.162Z,15.68
